Time;durP1;ratioP1;P1;durP2;ratioP2;P2;SDS_P1;SDS_P2;PMS_P1;PMS_P2;Temp;Humidity;BMP_temperature;BMP_pressure;BME280_temperature;BME280_humidity;BME280_pressure;Samples;Min_cycle;Max_cycle;Signal;HPM_P1;HPM_P2
2021/11/29 00:00:52;;;;;;;2.65;1.45;;;1.50;95.00;;;;;;2087122;28;20035;-90
2021/11/29 00:02:00;;;;;;;2.95;1.60;;;1.50;95.00;;;;;;2091037;28;20075;-91
2021/11/29 00:03:05;;;;;;;3.03;1.65;;;1.50;95.00;;;;;;2090783;28;20039;-91
2021/11/29 00:04:06;;;;;;;3.97;1.70;;;1.50;95.00;;;;;;2087676;28;20106;-91
2021/11/29 00:05:07;;;;;;;3.15;1.48;;;1.50;95.00;;;;;;2082150;28;20022;-91
2021/11/29 00:06:08;;;;;;;3.25;1.50;;;1.60;95.00;;;;;;2071536;28;20449;-89
2021/11/29 00:07:09;;;;;;;2.97;1.38;;;1.60;95.00;;;;;;2088451;28;20029;-90
2021/11/29 00:08:09;;;;;;;3.60;1.58;;;1.60;95.00;;;;;;2085496;28;20096;-90
2021/11/29 00:09:10;;;;;;;2.85;1.60;;;1.60;95.20;;;;;;2086487;28;20689;-91
2021/11/29 00:10:11;;;;;;;2.60;1.42;;;1.60;94.90;;;;;;2081593;28;20029;-91
2021/11/29 00:11:12;;;;;;;3.03;1.35;;;1.60;95.20;;;;;;2061745;28;20026;-91
2021/11/29 00:12:12;;;;;;;2.50;1.33;;;1.60;94.90;;;;;;2069199;28;20459;-90
2021/11/29 00:13:13;;;;;;;3.05;1.50;;;1.70;94.90;;;;;;2088137;28;20067;-90
2021/11/29 00:14:14;;;;;;;3.22;1.50;;;1.60;94.90;;;;;;2088292;28;20087;-91
2021/11/29 00:15:15;;;;;;;3.63;1.40;;;1.60;95.10;;;;;;2089238;28;20021;-91
2021/11/29 00:16:16;;;;;;;3.63;1.45;;;1.70;94.90;;;;;;2077667;28;20021;-89
2021/11/29 00:17:17;;;;;;;3.22;1.50;;;1.70;94.90;;;;;;2072027;28;20061;-90
2021/11/29 00:18:17;;;;;;;3.38;1.30;;;1.70;94.90;;;;;;2078874;28;20025;-90
2021/11/29 00:19:18;;;;;;;4.97;1.70;;;1.70;95.10;;;;;;2087418;28;20053;-91
2021/11/29 00:20:19;;;;;;;4.38;1.55;;;1.70;94.80;;;;;;2088320;28;20029;-91
2021/11/29 00:21:20;;;;;;;3.42;1.50;;;1.70;94.80;;;;;;2073142;28;20034;-90
2021/11/29 00:22:21;;;;;;;4.40;1.48;;;1.70;94.80;;;;;;2074783;28;20038;-90
2021/11/29 00:23:21;;;;;;;3.25;1.55;;;1.70;94.80;;;;;;2075271;28;20124;-90
2021/11/29 00:24:22;;;;;;;2.40;1.30;;;1.70;94.80;;;;;;2071902;28;20120;-91
2021/11/29 00:25:24;;;;;;;3.75;1.63;;;1.80;94.80;;;;;;2064530;28;20022;-91
2021/11/29 00:26:25;;;;;;;2.85;1.38;;;1.70;94.80;;;;;;2072879;28;20034;-91
2021/11/29 00:27:25;;;;;;;3.10;1.42;;;1.70;94.80;;;;;;2064116;28;20053;-91
2021/11/29 00:28:26;;;;;;;3.92;1.40;;;1.80;94.80;;;;;;2064637;28;20034;-91
2021/11/29 00:29:27;;;;;;;3.17;1.38;;;1.70;94.80;;;;;;2064706;28;20134;-90
2021/11/29 00:30:27;;;;;;;2.47;1.48;;;1.70;94.80;;;;;;2068173;28;20112;-90
2021/11/29 00:31:28;;;;;;;3.22;1.60;;;1.80;94.80;;;;;;2088919;28;20075;-91
2021/11/29 00:32:29;;;;;;;3.75;1.42;;;1.80;94.80;;;;;;2088213;28;20021;-91
2021/11/29 00:33:29;;;;;;;3.10;1.23;;;1.80;94.80;;;;;;2088896;28;20025;-91
2021/11/29 00:34:30;;;;;;;4.10;1.38;;;1.80;94.80;;;;;;2086594;28;20100;-91
2021/11/29 00:35:31;;;;;;;2.45;1.20;;;1.80;94.70;;;;;;2088354;28;22553;-90
2021/11/29 00:36:32;;;;;;;3.47;1.33;;;1.80;94.70;;;;;;2087395;28;20120;-91
2021/11/29 00:37:33;;;;;;;3.03;1.30;;;1.80;94.70;;;;;;2073925;28;20108;-90
2021/11/29 00:38:34;;;;;;;3.08;1.15;;;1.80;94.70;;;;;;2088840;28;20021;-90
2021/11/29 00:39:35;;;;;;;2.15;1.10;;;1.90;94.70;;;;;;2088670;28;20029;-89
2021/11/29 00:40:37;;;;;;;2.22;1.05;;;1.80;94.70;;;;;;2080645;28;20037;-91
2021/11/29 00:41:38;;;;;;;2.58;1.08;;;1.90;94.70;;;;;;2072700;28;20037;-90
2021/11/29 00:42:39;;;;;;;1.70;1.00;;;1.90;94.70;;;;;;2089996;28;20545;-91
2021/11/29 00:43:40;;;;;;;2.47;0.90;;;1.80;94.70;;;;;;2083014;28;20041;-91
2021/11/29 00:44:40;;;;;;;2.53;1.10;;;1.90;94.70;;;;;;2082943;28;20165;-91
2021/11/29 00:45:41;;;;;;;2.97;0.90;;;1.90;94.70;;;;;;2067972;28;20492;-91
2021/11/29 00:46:42;;;;;;;1.92;0.80;;;1.90;95.00;;;;;;2082989;28;20092;-90
2021/11/29 00:47:42;;;;;;;2.35;0.90;;;1.90;94.80;;;;;;2092169;28;20037;-89
2021/11/29 00:48:43;;;;;;;2.28;0.82;;;1.90;94.80;;;;;;2099329;28;20093;-91
2021/11/29 00:49:44;;;;;;;1.85;0.80;;;1.90;94.80;;;;;;2099001;28;20080;-89
2021/11/29 00:50:45;;;;;;;1.95;0.80;;;1.90;94.80;;;;;;2089666;28;20036;-83
2021/11/29 00:51:45;;;;;;;1.98;0.77;;;1.90;94.80;;;;;;2077545;28;20045;-88
2021/11/29 00:52:46;;;;;;;2.75;0.80;;;1.90;94.80;;;;;;2089996;28;20022;-89
2021/11/29 00:53:47;;;;;;;1.20;0.60;;;1.90;94.80;;;;;;2086914;28;20050;-90
2021/11/29 00:54:48;;;;;;;2.58;0.70;;;1.90;94.80;;;;;;2083611;28;20013;-90
2021/11/29 00:55:49;;;;;;;1.10;0.70;;;1.80;94.80;;;;;;2089124;28;20083;-88
2021/11/29 00:56:49;;;;;;;2.50;0.70;;;1.90;94.90;;;;;;2088464;28;20410;-91
2021/11/29 00:57:50;;;;;;;0.65;0.52;;;1.80;94.90;;;;;;2080651;28;20030;-90
2021/11/29 00:58:50;;;;;;;1.40;0.47;;;1.90;94.90;;;;;;2072727;28;20628;-91
2021/11/29 00:59:51;;;;;;;1.10;0.60;;;1.80;94.90;;;;;;2072491;28;20030;-90
2021/11/29 01:00:52;;;;;;;1.20;0.65;;;1.80;94.90;;;;;;2079930;28;20179;-90
2021/11/29 01:01:53;;;;;;;1.75;0.60;;;1.80;94.90;;;;;;2075174;28;20029;-90
2021/11/29 01:02:55;;;;;;;1.55;0.65;;;1.80;94.90;;;;;;2072271;28;20024;-91
2021/11/29 01:03:56;;;;;;;1.70;0.55;;;1.80;94.90;;;;;;2081348;28;20025;-90
2021/11/29 01:04:56;;;;;;;1.35;0.60;;;1.80;94.90;;;;;;2080638;28;20026;-90
2021/11/29 01:05:57;;;;;;;2.30;0.60;;;1.80;95.00;;;;;;2069361;28;20042;-91
2021/11/29 01:06:58;;;;;;;1.65;0.60;;;1.80;95.00;;;;;;2070268;28;20053;-91
2021/11/29 01:07:59;;;;;;;2.25;0.60;;;1.80;95.00;;;;;;2073874;28;20128;-91
2021/11/29 01:08:59;;;;;;;1.20;0.55;;;1.80;95.00;;;;;;2064433;28;20039;-91
2021/11/29 01:10:00;;;;;;;1.48;0.40;;;1.80;95.00;;;;;;2072065;28;20026;-90
2021/11/29 01:11:02;;;;;;;0.63;0.40;;;1.80;95.00;;;;;;2064521;28;20034;-91
2021/11/29 01:12:04;;;;;;;1.17;0.43;;;1.80;95.00;;;;;;2066010;28;20026;-89
2021/11/29 01:13:05;;;;;;;1.73;0.60;;;1.70;95.00;;;;;;2084277;28;20056;-91
2021/11/29 01:14:05;;;;;;;3.13;0.63;;;1.70;95.00;;;;;;2064976;28;20081;-91
2021/11/29 01:15:08;;;;;;;1.85;0.43;;;1.70;95.00;;;;;;2056547;28;20046;-90
2021/11/29 01:16:09;;;;;;;1.35;0.45;;;1.70;95.00;;;;;;2062696;28;20031;-91
2021/11/29 01:17:11;;;;;;;1.08;0.47;;;1.70;95.00;;;;;;2072057;28;20076;-91
2021/11/29 01:18:12;;;;;;;1.23;0.50;;;1.70;95.00;;;;;;2081097;28;20036;-92
2021/11/29 01:19:13;;;;;;;2.05;0.68;;;1.70;95.00;;;;;;2081397;28;20102;-91
2021/11/29 01:20:16;;;;;;;0.57;0.40;;;1.70;95.00;;;;;;2076974;28;20551;-91
2021/11/29 01:21:20;;;;;;;0.57;0.30;;;1.70;95.10;;;;;;2081473;28;20045;-91
2021/11/29 01:22:21;;;;;;;1.13;0.40;;;1.70;95.10;;;;;;2081052;28;20037;-90
2021/11/29 01:23:22;;;;;;;1.35;0.40;;;1.70;95.10;;;;;;2079075;28;20072;-91
2021/11/29 01:24:22;;;;;;;2.15;0.43;;;1.70;95.10;;;;;;2080618;28;20044;-92
2021/11/29 01:25:23;;;;;;;1.08;0.40;;;1.70;95.10;;;;;;2071858;28;20100;-92
2021/11/29 01:26:24;;;;;;;0.90;0.40;;;1.70;95.10;;;;;;2072500;28;20073;-92
2021/11/29 01:27:24;;;;;;;1.23;0.40;;;1.70;95.10;;;;;;2072524;28;20026;-90
2021/11/29 01:28:25;;;;;;;2.42;0.50;;;1.70;95.10;;;;;;2083839;28;20029;-91
2021/11/29 01:29:26;;;;;;;1.70;0.60;;;1.70;95.10;;;;;;2066184;28;20050;-90
2021/11/29 01:30:27;;;;;;;1.40;0.50;;;1.70;95.10;;;;;;2071088;28;20026;-91
2021/11/29 01:31:27;;;;;;;2.53;0.50;;;1.70;95.10;;;;;;2061617;28;20117;-91
2021/11/29 01:32:28;;;;;;;0.80;0.30;;;1.70;95.10;;;;;;2055451;28;20034;-91
2021/11/29 01:33:29;;;;;;;0.77;0.30;;;1.70;95.10;;;;;;2072868;28;20026;-91
2021/11/29 01:34:30;;;;;;;1.05;0.32;;;1.70;95.10;;;;;;2072763;28;20034;-90
2021/11/29 01:35:31;;;;;;;0.85;0.40;;;1.60;95.10;;;;;;2072452;28;20041;-90
2021/11/29 01:36:31;;;;;;;1.20;0.30;;;1.70;95.20;;;;;;2071487;28;20069;-91
2021/11/29 01:37:33;;;;;;;0.68;0.32;;;1.60;95.10;;;;;;2071549;28;20133;-91
2021/11/29 01:38:34;;;;;;;1.30;0.57;;;1.70;95.10;;;;;;2064986;28;20405;-91
2021/11/29 01:39:34;;;;;;;1.30;0.30;;;1.70;95.10;;;;;;2053068;28;20157;-91
2021/11/29 01:40:36;;;;;;;0.90;0.40;;;1.70;95.10;;;;;;2055544;28;20027;-91
2021/11/29 01:41:40;;;;;;;1.20;0.30;;;1.70;95.40;;;;;;2059274;28;20042;-92
2021/11/29 01:43:01;;;;;;;2.80;0.38;;;1.70;95.20;;;;;;2058296;28;20019;-90
2021/11/29 01:44:02;;;;;;;2.30;0.40;;;1.70;95.20;;;;;;2068727;28;20026;-90
2021/11/29 01:45:04;;;;;;;0.85;0.20;;;1.70;95.10;;;;;;2073346;28;20030;-91
2021/11/29 01:46:05;;;;;;;0.77;0.30;;;1.70;95.10;;;;;;2080888;28;20024;-91
2021/11/29 01:47:06;;;;;;;1.08;0.30;;;1.70;95.10;;;;;;2082495;28;20056;-90
2021/11/29 01:48:07;;;;;;;0.82;0.30;;;1.70;95.10;;;;;;2082974;28;20025;-90
2021/11/29 01:49:08;;;;;;;0.32;0.20;;;1.70;95.40;;;;;;2083941;28;20095;-90
2021/11/29 01:50:08;;;;;;;0.60;0.20;;;1.70;95.10;;;;;;2082538;28;20029;-90
2021/11/29 01:51:11;;;;;;;1.00;0.32;;;1.70;95.10;;;;;;2082137;28;20049;-91
2021/11/29 01:52:12;;;;;;;1.95;0.50;;;1.70;95.10;;;;;;2084516;28;20033;-90
2021/11/29 01:53:14;;;;;;;0.60;0.40;;;1.70;95.10;;;;;;2066418;28;20026;-91
2021/11/29 01:54:15;;;;;;;0.70;0.30;;;1.70;95.10;;;;;;2058510;28;20027;-90
2021/11/29 01:55:17;;;;;;;1.92;0.40;;;1.70;95.40;;;;;;2065486;28;20042;-91
2021/11/29 01:56:17;;;;;;;1.23;0.30;;;1.70;95.10;;;;;;2050901;28;20099;-90
2021/11/29 01:57:18;;;;;;;1.00;0.32;;;1.70;95.10;;;;;;2066140;28;20093;-90
2021/11/29 01:58:19;;;;;;;0.38;0.28;;;1.70;95.10;;;;;;2063437;28;20461;-90
2021/11/29 01:59:20;;;;;;;2.33;0.45;;;1.70;95.10;;;;;;2057576;28;20486;-90
2021/11/29 02:00:26;;;;;;;2.33;0.43;;;1.70;95.10;;;;;;2054508;28;20067;-91
2021/11/29 02:01:27;;;;;;;0.95;0.32;;;1.70;95.10;;;;;;2058470;28;20031;-91
2021/11/29 02:02:28;;;;;;;1.98;0.50;;;1.70;95.10;;;;;;2066257;28;20026;-91
2021/11/29 02:03:30;;;;;;;0.68;0.30;;;1.70;95.10;;;;;;2064479;28;20026;-91
2021/11/29 02:04:31;;;;;;;1.15;0.32;;;1.70;95.10;;;;;;2062068;28;20023;-91
2021/11/29 02:05:32;;;;;;;1.45;0.50;;;1.70;95.10;;;;;;2056807;28;20884;-91
2021/11/29 02:06:34;;;;;;;1.33;0.38;;;1.70;95.10;;;;;;2074578;28;20033;-92
2021/11/29 02:07:34;;;;;;;1.08;0.35;;;1.70;95.10;;;;;;2064816;28;20032;-91
2021/11/29 02:08:36;;;;;;;1.23;0.40;;;1.70;95.10;;;;;;2081856;28;20049;-91
2021/11/29 02:09:37;;;;;;;1.55;0.32;;;1.70;95.10;;;;;;2086942;28;20060;-91
2021/11/29 02:10:38;;;;;;;0.50;0.30;;;1.70;95.10;;;;;;2090541;28;20106;-91
2021/11/29 02:11:39;;;;;;;0.95;0.38;;;1.70;95.10;;;;;;2090303;28;20031;-91
2021/11/29 02:12:40;;;;;;;0.85;0.30;;;1.70;95.10;;;;;;2081716;28;20021;-92
2021/11/29 02:13:41;;;;;;;2.92;0.40;;;1.70;95.10;;;;;;2073542;28;20532;-91
2021/11/29 02:14:46;;;;;;;0.63;0.30;;;1.70;95.10;;;;;;2072933;28;20090;-92
2021/11/29 02:15:51;;;;;;;0.95;0.30;;;1.70;95.10;;;;;;2072161;28;20030;-91
2021/11/29 02:16:51;;;;;;;0.55;0.38;;;1.70;95.10;;;;;;2077318;28;20044;-91
2021/11/29 02:17:53;;;;;;;1.23;0.40;;;1.70;95.10;;;;;;2074516;28;20045;-92
2021/11/29 02:18:54;;;;;;;0.80;0.30;;;1.70;95.10;;;;;;2066018;28;20477;-91
2021/11/29 02:19:56;;;;;;;1.27;0.63;;;1.70;95.10;;;;;;2072461;28;20033;-91
2021/11/29 02:21:13;;;;;;;0.75;0.32;;;1.70;95.10;;;;;;2080652;28;20060;-90
2021/11/29 02:22:14;;;;;;;0.50;0.30;;;1.70;95.10;;;;;;2090828;28;20043;-90
2021/11/29 02:23:14;;;;;;;1.45;0.40;;;1.70;95.10;;;;;;2081384;28;20033;-91
2021/11/29 02:24:17;;;;;;;1.63;0.40;;;1.70;95.10;;;;;;2065233;28;20560;-91
2021/11/29 02:25:19;;;;;;;0.50;0.30;;;1.70;95.10;;;;;;2068690;28;20031;-90
2021/11/29 02:26:23;;;;;;;0.60;0.30;;;1.70;95.10;;;;;;2073897;28;20049;-91
2021/11/29 02:27:24;;;;;;;1.10;0.30;;;1.70;95.10;;;;;;2089087;28;20024;-91
2021/11/29 02:28:25;;;;;;;1.40;0.40;;;1.70;95.10;;;;;;2081683;28;20037;-91
2021/11/29 02:29:25;;;;;;;1.17;0.30;;;1.70;95.10;;;;;;2080262;28;20021;-91
2021/11/29 02:30:27;;;;;;;1.02;0.40;;;1.60;95.10;;;;;;2090011;28;20029;-90
2021/11/29 02:31:34;;;;;;;0.68;0.30;;;1.70;95.10;;;;;;2082192;28;20065;-91
2021/11/29 02:32:35;;;;;;;1.70;0.30;;;1.70;95.10;;;;;;2083293;28;20026;-91
2021/11/29 02:33:36;;;;;;;1.40;0.40;;;1.60;95.10;;;;;;2082008;28;20022;-91
2021/11/29 02:34:37;;;;;;;2.13;0.43;;;1.60;95.10;;;;;;2089362;28;20376;-91
2021/11/29 02:35:38;;;;;;;1.40;0.30;;;1.60;95.10;;;;;;2090031;28;20032;-91
2021/11/29 02:36:40;;;;;;;1.35;0.47;;;1.60;95.10;;;;;;2088804;28;20052;-91
2021/11/29 02:37:40;;;;;;;0.70;0.30;;;1.60;95.10;;;;;;2082926;28;20026;-92
2021/11/29 02:38:44;;;;;;;1.38;0.30;;;1.60;95.10;;;;;;2071736;28;20025;-91
2021/11/29 02:39:45;;;;;;;0.50;0.30;;;1.60;95.40;;;;;;2083269;28;20057;-91
2021/11/29 02:40:46;;;;;;;0.65;0.30;;;1.60;95.20;;;;;;2080962;28;20021;-91
2021/11/29 02:41:48;;;;;;;1.05;0.28;;;1.60;95.20;;;;;;2081999;28;20025;-91
2021/11/29 02:42:49;;;;;;;0.88;0.30;;;1.60;95.20;;;;;;2077234;28;20049;-91
2021/11/29 02:43:49;;;;;;;0.68;0.30;;;1.60;95.20;;;;;;2082533;28;20065;-85
2021/11/29 02:44:50;;;;;;;0.57;0.40;;;1.60;95.20;;;;;;2084281;28;20014;-88
2021/11/29 02:45:51;;;;;;;1.23;0.40;;;1.60;95.20;;;;;;2083183;28;20045;-87
2021/11/29 02:46:52;;;;;;;1.58;0.40;;;1.60;95.20;;;;;;2080871;28;20038;-88
2021/11/29 02:47:52;;;;;;;0.70;0.30;;;1.60;95.20;;;;;;2091252;28;20028;-83
2021/11/29 02:48:53;;;;;;;0.73;0.30;;;1.60;95.20;;;;;;2087918;28;20069;-91
2021/11/29 02:49:54;;;;;;;1.25;0.40;;;1.50;95.20;;;;;;2072175;28;20587;-92
2021/11/29 02:50:55;;;;;;;0.75;0.40;;;1.60;95.20;;;;;;2067753;28;20025;-91
2021/11/29 02:52:05;;;;;;;0.43;0.30;;;1.50;95.20;;;;;;2074196;28;20038;-90
2021/11/29 02:53:08;;;;;;;2.30;0.50;;;1.50;95.20;;;;;;2077698;28;20057;-91
2021/11/29 02:54:13;;;;;;;0.85;0.40;;;1.50;95.20;;;;;;2088454;28;20025;-90
2021/11/29 02:55:14;;;;;;;0.73;0.35;;;1.50;95.20;;;;;;2090133;28;20021;-91
2021/11/29 02:56:16;;;;;;;0.80;0.32;;;1.50;95.20;;;;;;2095186;28;20029;-90
2021/11/29 02:57:20;;;;;;;2.72;0.38;;;1.50;95.20;;;;;;2096547;28;20140;-91
2021/11/29 02:58:21;;;;;;;0.75;0.30;;;1.50;95.20;;;;;;2098160;28;20053;-90
2021/11/29 02:59:28;;;;;;;1.05;0.40;;;1.50;95.50;;;;;;2089833;28;20030;-90
2021/11/29 03:00:29;;;;;;;1.02;0.40;;;1.50;95.20;;;;;;2093881;28;20029;-90
2021/11/29 03:01:30;;;;;;;1.38;0.40;;;1.50;95.20;;;;;;2101019;28;20032;-90
2021/11/29 03:02:32;;;;;;;0.75;0.35;;;1.50;95.20;;;;;;2085326;28;20473;-91
2021/11/29 03:03:32;;;;;;;1.58;0.40;;;1.50;95.20;;;;;;2074245;28;20018;-91
2021/11/29 03:04:34;;;;;;;0.40;0.20;;;1.50;95.20;;;;;;2066849;28;20030;-91
2021/11/29 03:05:36;;;;;;;0.68;0.30;;;1.50;95.20;;;;;;2083372;28;20104;-91
2021/11/29 03:06:37;;;;;;;1.25;0.38;;;1.40;95.20;;;;;;2090519;28;20032;-90
2021/11/29 03:07:38;;;;;;;0.63;0.20;;;1.40;95.20;;;;;;2079663;28;20056;-91
2021/11/29 03:08:40;;;;;;;0.85;0.30;;;1.40;95.20;;;;;;2080993;28;20076;-91
2021/11/29 03:09:41;;;;;;;1.30;0.43;;;1.40;95.30;;;;;;2088802;28;20029;-91
2021/11/29 03:10:42;;;;;;;1.08;0.40;;;1.40;95.30;;;;;;2090012;28;20029;-92
2021/11/29 03:11:43;;;;;;;0.95;0.70;;;1.40;95.30;;;;;;2087443;28;20033;-91
2021/11/29 03:12:44;;;;;;;0.43;0.30;;;1.40;95.30;;;;;;2073938;28;20121;-91
2021/11/29 03:13:45;;;;;;;1.27;0.30;;;1.50;95.30;;;;;;2068176;28;20026;-91
2021/11/29 03:14:46;;;;;;;0.73;0.30;;;1.40;95.30;;;;;;2073720;28;20117;-90
2021/11/29 03:15:49;;;;;;;0.52;0.25;;;1.40;95.30;;;;;;2062560;28;20034;-90
2021/11/29 03:16:53;;;;;;;0.40;0.20;;;1.40;95.30;;;;;;2074506;28;20038;-90
2021/11/29 03:17:54;;;;;;;1.20;0.30;;;1.40;95.30;;;;;;2088886;28;20429;-90
2021/11/29 03:18:54;;;;;;;2.15;0.38;;;1.40;95.30;;;;;;2090425;28;20021;-90
2021/11/29 03:19:55;;;;;;;2.20;0.32;;;1.40;95.30;;;;;;2087779;28;20092;-89
2021/11/29 03:20:56;;;;;;;0.80;0.30;;;1.40;95.30;;;;;;2090144;28;20395;-89
2021/11/29 03:21:57;;;;;;;1.05;0.30;;;1.40;95.30;;;;;;2090787;28;20037;-89
2021/11/29 03:22:57;;;;;;;0.40;0.30;;;1.40;95.30;;;;;;2082141;28;20021;-91
2021/11/29 03:24:01;;;;;;;0.98;0.32;;;1.40;95.30;;;;;;2082143;28;20121;-90
2021/11/29 03:25:03;;;;;;;0.30;0.20;;;1.40;95.30;;;;;;2088809;28;20017;-91
2021/11/29 03:26:09;;;;;;;1.23;0.35;;;1.40;95.30;;;;;;2076286;28;20419;-91
2021/11/29 03:27:10;;;;;;;1.30;0.25;;;1.40;95.30;;;;;;2089495;28;20033;-91
2021/11/29 03:28:13;;;;;;;1.58;0.30;;;1.40;95.30;;;;;;2078447;28;20040;-90
2021/11/29 03:29:16;;;;;;;0.82;0.28;;;1.40;95.30;;;;;;2081545;28;20037;-91
2021/11/29 03:30:17;;;;;;;1.55;0.22;;;1.40;95.30;;;;;;2089567;28;20029;-91
2021/11/29 03:31:18;;;;;;;0.63;0.20;;;1.40;95.30;;;;;;2081777;28;20033;-91
2021/11/29 03:32:20;;;;;;;0.98;0.20;;;1.40;95.30;;;;;;2081750;28;20037;-91
2021/11/29 03:33:20;;;;;;;0.60;0.55;;;1.40;95.30;;;;;;2090076;28;20033;-91
2021/11/29 03:34:22;;;;;;;0.43;0.20;;;1.40;95.30;;;;;;2081353;28;20034;-90
2021/11/29 03:35:23;;;;;;;0.22;0.20;;;1.40;95.30;;;;;;2081561;28;20029;-90
2021/11/29 03:36:25;;;;;;;1.17;0.20;;;1.40;95.30;;;;;;2089919;28;20036;-91
2021/11/29 03:37:25;;;;;;;0.38;0.30;;;1.40;95.30;;;;;;2090116;28;20025;-91
2021/11/29 03:38:26;;;;;;;0.32;0.20;;;1.40;95.30;;;;;;2090268;28;20479;-92
2021/11/29 03:39:29;;;;;;;1.13;0.40;;;1.40;95.30;;;;;;2090328;28;20112;-90
2021/11/29 03:40:29;;;;;;;0.40;0.28;;;1.40;95.30;;;;;;2089421;28;20013;-91
2021/11/29 03:41:30;;;;;;;1.55;0.30;;;1.40;95.30;;;;;;2082113;28;20064;-91
2021/11/29 03:42:31;;;;;;;1.05;0.40;;;1.40;95.30;;;;;;2081979;28;20036;-91
2021/11/29 03:43:31;;;;;;;0.82;0.30;;;1.40;95.30;;;;;;2083780;28;20403;-91
2021/11/29 03:44:38;;;;;;;0.30;0.20;;;1.40;95.30;;;;;;2090132;28;20040;-91
2021/11/29 03:45:38;;;;;;;1.00;0.40;;;1.40;95.30;;;;;;2076975;28;20108;-90
2021/11/29 03:46:40;;;;;;;0.40;0.30;;;1.30;95.30;;;;;;2065666;28;20026;-90
2021/11/29 03:47:41;;;;;;;1.50;0.30;;;1.30;95.30;;;;;;2065043;28;20027;-90
2021/11/29 03:48:42;;;;;;;0.93;0.13;;;1.30;95.60;;;;;;2073245;28;20500;-91
2021/11/29 03:49:43;;;;;;;0.30;0.20;;;1.30;95.30;;;;;;2075818;28;20033;-91
2021/11/29 03:50:44;;;;;;;0.28;0.20;;;1.30;95.30;;;;;;2089197;28;20021;-91
2021/11/29 03:51:45;;;;;;;0.35;0.25;;;1.30;95.30;;;;;;2080141;28;20040;-91
2021/11/29 03:52:45;;;;;;;1.45;0.35;;;1.40;95.40;;;;;;2074649;28;20026;-89
2021/11/29 03:53:46;;;;;;;1.05;0.20;;;1.30;95.40;;;;;;2065769;28;20031;-91
2021/11/29 03:54:50;;;;;;;0.17;0.10;;;1.40;95.40;;;;;;2080836;28;20519;-90
2021/11/29 03:55:51;;;;;;;2.13;0.22;;;1.30;95.40;;;;;;2081023;28;20038;-91
2021/11/29 03:56:52;;;;;;;1.25;0.22;;;1.30;95.30;;;;;;2079000;28;20492;-90
2021/11/29 03:57:53;;;;;;;1.13;0.30;;;1.30;95.40;;;;;;2089864;28;20025;-90
2021/11/29 03:58:53;;;;;;;0.70;0.20;;;1.40;95.40;;;;;;2089973;28;20028;-91
2021/11/29 03:59:54;;;;;;;1.05;0.30;;;1.30;95.30;;;;;;2090546;28;20056;-90
2021/11/29 04:00:55;;;;;;;0.85;0.20;;;1.30;95.30;;;;;;2086286;28;20468;-89
2021/11/29 04:01:56;;;;;;;0.40;0.20;;;1.30;95.40;;;;;;2083718;28;20468;-91
2021/11/29 04:02:56;;;;;;;0.80;0.20;;;1.30;95.30;;;;;;2079061;28;20064;-91
2021/11/29 04:03:58;;;;;;;0.32;0.20;;;1.40;95.40;;;;;;2080096;28;20048;-91
2021/11/29 04:04:59;;;;;;;0.38;0.20;;;1.30;95.40;;;;;;2081723;28;20079;-91
2021/11/29 04:05:59;;;;;;;1.40;0.30;;;1.40;95.40;;;;;;2079692;28;20029;-91
2021/11/29 04:07:00;;;;;;;0.95;0.22;;;1.40;95.40;;;;;;2090520;28;20044;-91
2021/11/29 04:08:01;;;;;;;1.00;0.40;;;1.30;95.40;;;;;;2087935;28;20129;-91
2021/11/29 04:09:03;;;;;;;0.30;0.28;;;1.30;95.40;;;;;;2073582;28;20053;-90
2021/11/29 04:10:05;;;;;;;0.75;0.30;;;1.30;95.40;;;;;;2066205;28;20023;-91
2021/11/29 04:11:06;;;;;;;2.17;0.20;;;1.30;95.40;;;;;;2083839;28;20037;-91
2021/11/29 04:12:07;;;;;;;1.30;0.30;;;1.30;95.40;;;;;;2081506;28;20161;-91
2021/11/29 04:13:08;;;;;;;0.85;0.28;;;1.30;95.40;;;;;;2073495;28;20416;-91
2021/11/29 04:14:09;;;;;;;0.93;0.30;;;1.30;95.40;;;;;;2071348;28;20481;-91
2021/11/29 04:15:10;;;;;;;1.80;0.30;;;1.30;95.40;;;;;;2079198;28;20128;-91
2021/11/29 04:16:13;;;;;;;1.10;0.30;;;1.30;95.60;;;;;;2085785;28;20029;-91
2021/11/29 04:17:14;;;;;;;0.50;0.30;;;1.30;95.40;;;;;;2089263;28;20041;-92
2021/11/29 04:18:14;;;;;;;0.85;0.30;;;1.30;95.40;;;;;;2087388;28;20033;-91
2021/11/29 04:19:15;;;;;;;0.82;0.30;;;1.30;95.40;;;;;;2079416;28;20033;-90
2021/11/29 04:20:16;;;;;;;0.50;0.30;;;1.30;95.40;;;;;;2065455;28;20078;-91
2021/11/29 04:21:17;;;;;;;1.08;0.50;;;1.30;95.40;;;;;;2079684;28;20112;-91
2021/11/29 04:22:18;;;;;;;0.63;0.40;;;1.30;95.40;;;;;;2084636;28;20550;-90
2021/11/29 04:23:19;;;;;;;0.73;0.40;;;1.30;95.40;;;;;;2081413;28;20030;-91
2021/11/29 04:24:22;;;;;;;0.75;0.30;;;1.30;95.40;;;;;;2073108;28;20018;-91
2021/11/29 04:25:24;;;;;;;0.60;0.40;;;1.30;95.40;;;;;;2072420;28;20029;-90
2021/11/29 04:26:26;;;;;;;1.15;0.50;;;1.30;95.40;;;;;;2072187;28;20038;-91
2021/11/29 04:27:28;;;;;;;1.30;0.47;;;1.30;95.40;;;;;;2066494;28;20030;-91
2021/11/29 04:28:30;;;;;;;2.17;0.50;;;1.30;95.40;;;;;;2065925;28;20109;-91
2021/11/29 04:29:39;;;;;;;1.02;0.40;;;1.30;95.40;;;;;;2082111;28;20037;-91
2021/11/29 04:30:40;;;;;;;0.40;0.38;;;1.30;95.40;;;;;;2087828;28;20437;-90
2021/11/29 04:31:40;;;;;;;0.60;0.40;;;1.30;95.60;;;;;;2081707;28;20040;-90
2021/11/29 04:32:41;;;;;;;1.17;0.40;;;1.30;95.40;;;;;;2055340;28;20058;-90
2021/11/29 04:33:42;;;;;;;2.15;0.60;;;1.30;95.40;;;;;;2057876;28;20037;-91
2021/11/29 04:34:42;;;;;;;2.53;0.55;;;1.30;95.40;;;;;;2055512;28;20034;-91
2021/11/29 04:35:43;;;;;;;0.90;0.50;;;1.30;95.40;;;;;;2068437;28;20034;-86
2021/11/29 04:36:44;;;;;;;1.15;0.60;;;1.30;95.40;;;;;;2087421;28;20018;-87
2021/11/29 04:37:44;;;;;;;0.80;0.40;;;1.30;95.30;;;;;;2080279;28;20029;-87
2021/11/29 04:38:45;;;;;;;1.75;0.75;;;1.30;95.30;;;;;;2088977;28;20041;-86
2021/11/29 04:39:46;;;;;;;2.55;0.70;;;1.30;95.40;;;;;;2091932;28;20037;-87
2021/11/29 04:40:47;;;;;;;0.88;0.50;;;1.30;95.40;;;;;;2088816;28;20093;-87
2021/11/29 04:41:48;;;;;;;1.23;0.68;;;1.30;95.40;;;;;;2081012;28;20041;-87
2021/11/29 04:42:48;;;;;;;1.33;0.60;;;1.30;95.40;;;;;;2091896;28;20026;-90
2021/11/29 04:43:49;;;;;;;1.17;0.40;;;1.30;95.30;;;;;;2082113;28;20038;-88
2021/11/29 04:44:50;;;;;;;1.17;0.60;;;1.30;95.40;;;;;;2065501;28;20560;-90
2021/11/29 04:45:50;;;;;;;2.25;0.82;;;1.30;95.30;;;;;;2070992;28;20033;-91
2021/11/29 04:46:51;;;;;;;1.20;0.60;;;1.30;95.30;;;;;;2072574;28;20434;-90
2021/11/29 04:47:52;;;;;;;2.55;0.77;;;1.30;95.30;;;;;;2065048;28;20023;-90
2021/11/29 04:48:52;;;;;;;1.20;0.65;;;1.30;95.30;;;;;;2071147;28;20056;-90
2021/11/29 04:49:53;;;;;;;1.20;0.50;;;1.30;95.30;;;;;;2080963;28;20055;-90
2021/11/29 04:50:54;;;;;;;1.17;0.70;;;1.30;95.30;;;;;;2071487;28;20439;-91
2021/11/29 04:51:54;;;;;;;0.82;0.60;;;1.30;95.30;;;;;;2072756;28;20432;-91
2021/11/29 04:52:55;;;;;;;1.63;0.70;;;1.30;95.30;;;;;;2081235;28;20057;-89
2021/11/29 04:53:56;;;;;;;1.90;0.70;;;1.30;95.30;;;;;;2069716;28;20547;-89
2021/11/29 04:54:56;;;;;;;1.20;0.70;;;1.30;95.30;;;;;;2077010;28;20029;-90
2021/11/29 04:55:57;;;;;;;2.15;0.80;;;1.30;95.30;;;;;;2088907;28;20056;-90
2021/11/29 04:56:58;;;;;;;0.82;0.63;;;1.30;95.30;;;;;;2082793;28;20065;-90
2021/11/29 04:57:58;;;;;;;2.00;0.70;;;1.30;95.30;;;;;;2088541;28;20029;-90
2021/11/29 04:58:59;;;;;;;1.92;0.80;;;1.30;95.30;;;;;;2081539;28;20040;-91
2021/11/29 05:00:00;;;;;;;2.00;0.85;;;1.30;95.30;;;;;;2083864;28;20048;-91
2021/11/29 05:01:01;;;;;;;1.48;0.70;;;1.30;95.60;;;;;;2089471;28;20025;-91
2021/11/29 05:02:02;;;;;;;1.95;0.80;;;1.30;95.30;;;;;;2096822;28;20024;-91
2021/11/29 05:03:03;;;;;;;1.88;0.70;;;1.30;95.30;;;;;;2081174;28;20025;-90
2021/11/29 05:04:04;;;;;;;1.67;0.70;;;1.30;95.30;;;;;;2063639;28;20420;-90
2021/11/29 05:05:06;;;;;;;2.30;0.60;;;1.30;95.30;;;;;;2072973;28;20026;-91
2021/11/29 05:06:07;;;;;;;1.23;0.65;;;1.30;95.30;;;;;;2080701;28;20021;-91
2021/11/29 05:07:07;;;;;;;2.58;0.68;;;1.30;95.30;;;;;;2079607;28;20061;-91
2021/11/29 05:08:08;;;;;;;1.45;0.70;;;1.30;95.50;;;;;;2068932;28;20117;-91
2021/11/29 05:09:11;;;;;;;2.05;0.63;;;1.30;95.30;;;;;;2066232;28;20505;-92
2021/11/29 05:10:12;;;;;;;1.98;0.75;;;1.30;95.30;;;;;;2066654;28;20054;-91
2021/11/29 05:11:13;;;;;;;0.93;0.60;;;1.30;95.30;;;;;;2080771;28;20036;-90
2021/11/29 05:12:15;;;;;;;2.50;0.60;;;1.30;95.50;;;;;;2087696;28;20529;-90
2021/11/29 05:13:18;;;;;;;2.00;0.65;;;1.30;95.30;;;;;;2075577;28;20186;-90
2021/11/29 05:14:18;;;;;;;1.58;0.70;;;1.30;95.30;;;;;;2066509;28;20030;-91
2021/11/29 05:15:19;;;;;;;1.13;0.70;;;1.30;95.30;;;;;;2063909;28;20033;-91
2021/11/29 05:16:20;;;;;;;1.45;0.60;;;1.30;95.20;;;;;;2081416;28;20125;-90
2021/11/29 05:17:20;;;;;;;1.73;0.77;;;1.40;95.30;;;;;;2095130;28;20498;-91
2021/11/29 05:18:21;;;;;;;1.92;0.70;;;1.40;95.20;;;;;;2090517;28;20025;-90
2021/11/29 05:19:22;;;;;;;2.95;0.70;;;1.40;95.20;;;;;;2090295;28;20040;-91
2021/11/29 05:20:23;;;;;;;1.75;0.70;;;1.40;95.20;;;;;;2090296;28;20025;-91
2021/11/29 05:21:23;;;;;;;0.68;0.52;;;1.40;95.20;;;;;;2089532;28;20040;-91
2021/11/29 05:22:24;;;;;;;1.25;0.77;;;1.40;95.20;;;;;;2089895;28;20127;-91
2021/11/29 05:23:25;;;;;;;1.58;0.60;;;1.40;95.20;;;;;;2081385;28;20116;-91
2021/11/29 05:24:25;;;;;;;3.28;0.80;;;1.40;95.20;;;;;;2091164;28;20044;-91